createdAt,value
2022-10-20T00:01:10.834Z,12.12
2022-10-20T00:03:38.464Z,12.08
2022-10-20T00:06:08.134Z,12.00
2022-10-20T00:08:35.663Z,11.96
2022-10-20T00:11:03.365Z,11.89
2022-10-20T00:13:31.112Z,11.93
2022-10-20T00:15:59.114Z,12.00
2022-10-20T00:18:27.019Z,11.86
2022-10-20T00:20:55.105Z,11.73
2022-10-20T00:23:22.762Z,11.70
2022-10-20T00:26:01.348Z,11.82
2022-10-20T00:28:28.701Z,11.81
2022-10-20T00:30:56.863Z,11.72
2022-10-20T00:33:25.109Z,11.66
2022-10-20T00:35:54.788Z,11.66
2022-10-20T00:38:22.430Z,11.68
2022-10-20T00:40:49.731Z,11.52
2022-10-20T00:43:18.106Z,11.44
2022-10-20T00:45:51.334Z,11.44
2022-10-20T00:48:26.040Z,11.40
2022-10-20T00:50:55.233Z,11.36
2022-10-20T00:53:24.740Z,11.35
2022-10-20T00:55:54.604Z,11.47
2022-10-20T00:58:22.341Z,11.45
2022-10-20T01:00:52.176Z,11.36
2022-10-20T01:03:47.311Z,11.38
2022-10-20T01:08:51.382Z,11.22
2022-10-20T01:11:33.960Z,11.18
2022-10-20T01:14:26.027Z,11.06
2022-10-20T01:17:08.726Z,11.17
2022-10-20T01:19:38.712Z,11.14
2022-10-20T01:22:20.630Z,11.03
2022-10-20T01:25:26.775Z,11.10
2022-10-20T01:28:02.468Z,10.98
2022-10-20T01:30:30.490Z,10.92
2022-10-20T01:33:09.908Z,10.95
2022-10-20T01:35:43.784Z,10.89
2022-10-20T01:38:31.895Z,10.90
2022-10-20T01:41:03.130Z,10.70
2022-10-20T01:43:34.343Z,10.69
2022-10-20T01:46:02.280Z,10.76
2022-10-20T01:48:33.417Z,10.68
2022-10-20T01:51:02.407Z,10.66
2022-10-20T01:53:29.686Z,10.65
2022-10-20T01:55:59.220Z,10.54
2022-10-20T01:58:35.865Z,10.71
2022-10-20T02:01:19.988Z,10.49
2022-10-20T02:03:56.230Z,10.66
2022-10-20T02:06:43.384Z,10.63
2022-10-20T02:09:16.827Z,10.53
2022-10-20T02:12:01.585Z,10.51
2022-10-20T02:14:29.782Z,10.47
2022-10-20T02:16:59.834Z,10.39
2022-10-20T02:19:31.519Z,10.31
2022-10-20T02:21:59.273Z,10.42
2022-10-20T02:24:29.235Z,10.49
2022-10-20T02:26:58.188Z,10.39
2022-10-20T02:29:28.808Z,10.44
2022-10-20T02:31:56.488Z,10.37
2022-10-20T02:34:27.201Z,10.30
2022-10-20T02:36:59.058Z,10.34
2022-10-20T02:39:26.868Z,10.25
2022-10-20T02:41:54.710Z,10.37
2022-10-20T02:44:22.966Z,10.35
2022-10-20T02:46:50.346Z,10.16
2022-10-20T02:49:17.656Z,10.32
2022-10-20T02:51:45.201Z,10.34
2022-10-20T02:54:12.484Z,10.27
2022-10-20T02:56:39.849Z,10.35
2022-10-20T02:59:07.419Z,10.26
2022-10-20T03:01:34.741Z,10.07
2022-10-20T03:04:02.086Z,10.12
2022-10-20T03:06:29.683Z,10.23
2022-10-20T03:08:57.300Z,10.12
2022-10-20T03:11:24.670Z,10.06
2022-10-20T03:13:52.237Z,10.01
2022-10-20T03:16:19.575Z,9.90
2022-10-20T03:18:47.012Z,10.10
2022-10-20T03:21:14.629Z,10.07
2022-10-20T03:23:41.936Z,9.87
2022-10-20T03:26:10.671Z,10.02
2022-10-20T03:28:38.999Z,10.06
2022-10-20T03:31:06.869Z,10.01
2022-10-20T03:33:34.642Z,10.03
2022-10-20T03:36:02.523Z,10.04
2022-10-20T03:38:29.824Z,10.00
2022-10-20T03:40:57.179Z,9.93
2022-10-20T03:43:24.765Z,9.94
2022-10-20T03:46:01.920Z,9.91
2022-10-20T03:48:29.938Z,9.73
2022-10-20T03:50:57.499Z,9.89
2022-10-20T03:53:24.796Z,9.85
2022-10-20T03:55:52.387Z,9.93
2022-10-20T03:58:19.758Z,9.74
2022-10-20T04:00:47.398Z,9.81
2022-10-20T04:03:15.080Z,9.75
2022-10-20T04:05:42.519Z,9.82
2022-10-20T04:08:09.854Z,9.77
2022-10-20T04:10:37.441Z,9.75
2022-10-20T04:13:04.768Z,9.73
2022-10-20T04:15:32.066Z,9.58
2022-10-20T04:17:59.782Z,9.61
2022-10-20T04:20:27.302Z,9.54
2022-10-20T04:22:54.599Z,9.58
2022-10-20T04:25:22.225Z,9.43
2022-10-20T04:27:49.731Z,9.37
2022-10-20T04:30:17.053Z,9.38
2022-10-20T04:32:44.628Z,9.41
2022-10-20T04:35:11.924Z,9.41
2022-10-20T04:37:39.630Z,9.33
2022-10-20T04:40:07.863Z,9.33
2022-10-20T04:42:35.169Z,9.23
2022-10-20T04:45:02.453Z,9.23
2022-10-20T04:47:34.252Z,9.23
2022-10-20T04:50:02.021Z,9.23
2022-10-20T04:52:29.768Z,9.11
2022-10-20T04:54:57.222Z,9.11
2022-10-20T04:57:24.683Z,9.09
2022-10-20T04:59:52.319Z,9.18
2022-10-20T05:02:19.636Z,9.09
2022-10-20T05:04:46.945Z,9.10
2022-10-20T05:07:14.510Z,9.02
2022-10-20T05:09:41.817Z,9.02
2022-10-20T05:12:09.238Z,8.98
2022-10-20T05:14:36.825Z,8.93
2022-10-20T05:17:06.506Z,8.91
2022-10-20T05:19:36.835Z,8.83
2022-10-20T05:22:04.451Z,8.86
2022-10-20T05:24:31.751Z,8.84
2022-10-20T05:26:59.385Z,8.82
2022-10-20T05:29:26.684Z,8.90
2022-10-20T05:31:53.978Z,8.83
2022-10-20T05:34:21.525Z,8.90
2022-10-20T05:36:48.831Z,8.86
2022-10-20T05:39:16.123Z,8.98
2022-10-20T05:41:43.671Z,8.97
2022-10-20T05:44:12.252Z,8.98
2022-10-20T05:46:42.921Z,8.98
2022-10-20T05:49:16.672Z,9.15
2022-10-20T05:51:45.306Z,9.19
2022-10-20T05:54:13.408Z,9.37
2022-10-20T05:56:41.072Z,9.49
2022-10-20T05:59:09.055Z,9.68
2022-10-20T06:01:49.311Z,9.79
2022-10-20T06:04:19.876Z,9.90
2022-10-20T06:06:48.816Z,9.98
2022-10-20T06:09:17.155Z,10.06
2022-10-20T06:11:44.473Z,10.30
2022-10-20T06:14:11.904Z,10.46
2022-10-20T06:16:39.471Z,10.59
2022-10-20T06:19:07.274Z,10.82
2022-10-20T06:21:35.693Z,10.93
2022-10-20T06:24:05.201Z,11.01
2022-10-20T06:26:34.377Z,11.23
2022-10-20T06:29:04.745Z,11.48
2022-10-20T06:31:35.310Z,11.60
2022-10-20T06:34:05.577Z,11.75
2022-10-20T06:36:38.499Z,11.88
2022-10-20T06:39:07.350Z,11.90
2022-10-20T06:41:35.400Z,12.20
2022-10-20T06:44:02.912Z,12.27
2022-10-20T06:46:32.602Z,12.45
2022-10-20T06:49:01.372Z,12.53
2022-10-20T06:51:28.664Z,12.72
2022-10-20T06:53:56.028Z,12.78
2022-10-20T06:56:25.675Z,12.89
2022-10-20T06:58:54.476Z,12.78
2022-10-20T07:01:30.594Z,13.14
2022-10-20T07:04:00.525Z,13.27
2022-10-20T07:06:30.601Z,13.26
2022-10-20T07:08:58.652Z,13.48
2022-10-20T07:11:28.037Z,13.70
2022-10-20T07:13:55.885Z,13.80
2022-10-20T07:16:25.267Z,14.14
2022-10-20T07:18:52.876Z,14.32
2022-10-20T07:21:22.382Z,14.38
2022-10-20T07:23:51.186Z,14.51
2022-10-20T07:26:21.969Z,14.72
2022-10-20T07:28:55.592Z,14.75
2022-10-20T07:31:25.244Z,14.81
2022-10-20T07:34:07.196Z,14.67
2022-10-20T07:36:42.150Z,14.78
2022-10-20T07:39:11.293Z,14.89
2022-10-20T07:41:39.558Z,14.86
2022-10-20T07:44:07.346Z,15.01
2022-10-20T07:46:35.803Z,15.04
2022-10-20T07:49:31.435Z,15.28
2022-10-20T07:51:51.487Z,15.22
2022-10-20T07:54:18.953Z,15.25
2022-10-20T07:56:46.547Z,15.22
2022-10-20T07:59:14.542Z,15.29
2022-10-20T08:01:41.977Z,15.29
2022-10-20T08:04:09.579Z,15.29
2022-10-20T08:06:39.113Z,15.29
2022-10-20T08:09:07.524Z,15.31
2022-10-20T08:11:35.775Z,15.29
2022-10-20T08:14:03.366Z,15.34
2022-10-20T08:16:30.753Z,15.32
2022-10-20T08:19:03.963Z,15.20
2022-10-20T08:21:31.313Z,15.34
2022-10-20T08:23:58.899Z,15.74
2022-10-20T08:26:26.469Z,15.87
2022-10-20T08:28:55.019Z,15.94
2022-10-20T08:31:23.322Z,15.94
2022-10-20T08:33:52.987Z,15.87
2022-10-20T08:36:21.232Z,15.96
2022-10-20T08:38:48.951Z,16.00
2022-10-20T08:41:25.730Z,16.13
2022-10-20T08:43:55.459Z,16.12
2022-10-20T08:46:31.409Z,16.13
2022-10-20T08:48:59.325Z,16.00
2022-10-20T08:51:38.230Z,16.13
2022-10-20T08:54:11.935Z,16.29
2022-10-20T08:56:39.265Z,16.24
2022-10-20T08:59:29.735Z,16.35
2022-10-20T09:01:57.764Z,16.38
2022-10-20T09:04:48.072Z,16.35
2022-10-20T09:07:31.878Z,16.37
2022-10-20T09:10:33.511Z,16.31
2022-10-20T09:13:01.543Z,16.43
2022-10-20T09:15:29.356Z,16.28
2022-10-20T09:18:01.817Z,16.48
2022-10-20T09:20:37.336Z,16.21
2022-10-20T09:23:16.368Z,16.31
2022-10-20T09:25:51.452Z,16.29
2022-10-20T09:28:26.888Z,16.30
2022-10-20T09:30:55.270Z,16.19
2022-10-20T09:33:28.864Z,16.13
2022-10-20T09:36:17.079Z,16.22
2022-10-20T09:38:47.983Z,16.40
2022-10-20T09:41:27.921Z,16.38
2022-10-20T09:43:58.944Z,16.35
2022-10-20T09:46:32.528Z,16.71
2022-10-20T09:49:00.072Z,16.61
2022-10-20T09:51:28.750Z,16.74
2022-10-20T09:54:06.778Z,16.76
2022-10-20T09:56:36.848Z,16.75
2022-10-20T09:59:08.141Z,16.90
2022-10-20T10:01:52.496Z,16.77
2022-10-20T10:04:36.535Z,16.95
2022-10-20T10:07:05.492Z,16.92
2022-10-20T10:09:36.001Z,17.14
2022-10-20T10:12:23.479Z,17.23
2022-10-20T10:15:00.909Z,17.18
2022-10-20T10:17:34.967Z,17.27
2022-10-20T10:20:22.903Z,16.99
2022-10-20T10:22:50.249Z,17.10
2022-10-20T10:25:28.126Z,17.29
2022-10-20T10:28:06.915Z,17.11
2022-10-20T10:30:37.249Z,17.29
2022-10-20T10:33:27.197Z,17.17
2022-10-20T10:35:55.105Z,17.19
2022-10-20T10:38:22.450Z,17.22
2022-10-20T10:41:26.982Z,17.10
2022-10-20T10:44:00.327Z,17.28
2022-10-20T10:46:40.846Z,17.18
2022-10-20T10:49:32.978Z,17.34
2022-10-20T10:52:35.666Z,17.48
2022-10-20T10:55:47.138Z,17.49
2022-10-20T10:58:20.658Z,17.66
2022-10-20T11:00:54.304Z,17.50
2022-10-20T11:04:06.595Z,17.56
2022-10-20T11:06:44.580Z,17.60
2022-10-20T11:09:16.348Z,17.74
2022-10-20T11:11:54.040Z,17.76
2022-10-20T11:14:27.379Z,17.70
2022-10-20T11:17:29.023Z,17.80
2022-10-20T11:20:07.476Z,17.89
2022-10-20T11:23:06.462Z,17.90
2022-10-20T11:25:38.985Z,17.80
2022-10-20T11:28:21.785Z,17.81
2022-10-20T11:30:49.444Z,17.70
2022-10-20T11:33:19.352Z,17.57
2022-10-20T11:36:09.348Z,17.82
2022-10-20T11:38:54.929Z,17.84
2022-10-20T11:41:28.266Z,17.82
2022-10-20T11:44:02.668Z,17.88
2022-10-20T11:46:47.912Z,18.03
2022-10-20T11:49:15.599Z,17.64
2022-10-20T11:52:17.835Z,17.81
2022-10-20T11:55:15.344Z,17.93
2022-10-20T11:58:22.572Z,17.84
2022-10-20T12:00:55.095Z,18.01
2022-10-20T12:03:54.568Z,18.05
2022-10-20T12:06:24.986Z,18.02
2022-10-20T12:09:17.594Z,17.89
2022-10-20T12:12:00.239Z,17.98
2022-10-20T12:14:36.338Z,17.94
2022-10-20T12:17:13.926Z,17.97
2022-10-20T12:19:41.512Z,17.94
2022-10-20T12:22:14.844Z,17.74
2022-10-20T12:24:54.750Z,17.71
2022-10-20T12:27:29.479Z,17.90
2022-10-20T12:30:02.950Z,17.88
2022-10-20T12:32:57.419Z,17.89
2022-10-20T12:35:24.857Z,17.63
2022-10-20T12:38:15.976Z,17.51
2022-10-20T12:40:55.031Z,17.80
2022-10-20T12:43:24.261Z,17.80
2022-10-20T12:45:52.162Z,17.83
2022-10-20T12:48:22.727Z,17.72
2022-10-20T12:50:51.128Z,17.51
2022-10-20T12:53:27.205Z,17.26
2022-10-20T12:55:58.141Z,17.64
2022-10-20T12:58:31.422Z,17.64
2022-10-20T13:00:58.663Z,17.57
2022-10-20T13:03:32.179Z,17.59
2022-10-20T13:05:59.965Z,17.74
2022-10-20T13:08:29.970Z,17.63
2022-10-20T13:11:35.839Z,17.22
2022-10-20T13:14:12.482Z,17.42
2022-10-20T13:16:51.508Z,17.51
2022-10-20T13:19:24.836Z,17.57
2022-10-20T13:21:52.386Z,17.49
2022-10-20T13:24:31.456Z,17.54
2022-10-20T13:27:02.826Z,17.63
2022-10-20T13:29:36.811Z,17.58
2022-10-20T13:34:52.749Z,17.55
2022-10-20T13:37:37.919Z,17.67
2022-10-20T13:40:46.965Z,17.49
2022-10-20T13:43:43.889Z,17.62
2022-10-20T13:46:31.650Z,17.42
2022-10-20T13:49:26.446Z,17.55
2022-10-20T13:51:58.888Z,17.44
2022-10-20T13:54:29.241Z,17.44
2022-10-20T13:56:57.271Z,17.55
2022-10-20T13:59:29.174Z,17.60
2022-10-20T14:02:03.692Z,17.67
2022-10-20T14:04:35.691Z,17.48
2022-10-20T14:07:04.893Z,17.39
2022-10-20T14:09:32.525Z,17.24
2022-10-20T14:12:06.875Z,17.25
2022-10-20T14:14:34.693Z,17.29
2022-10-20T14:17:07.090Z,17.32
2022-10-20T14:19:35.467Z,17.13
2022-10-20T14:22:15.329Z,17.26
2022-10-20T14:24:45.046Z,17.33
2022-10-20T14:27:24.555Z,17.36
2022-10-20T14:29:52.920Z,17.38
2022-10-20T14:32:26.787Z,17.26
2022-10-20T14:35:03.347Z,17.36
2022-10-20T14:37:36.225Z,17.29
2022-10-20T14:40:07.212Z,17.16
2022-10-20T14:42:34.836Z,17.20
2022-10-20T14:45:03.482Z,17.16
2022-10-20T14:47:39.142Z,17.08
2022-10-20T14:50:07.142Z,17.07
2022-10-20T14:52:38.691Z,17.32
2022-10-20T14:55:27.144Z,17.37
2022-10-20T14:57:55.916Z,17.29
2022-10-20T15:00:24.735Z,17.19
2022-10-20T15:02:56.864Z,17.05
2022-10-20T15:05:37.274Z,17.11
2022-10-20T15:08:21.277Z,17.04
2022-10-20T15:10:48.934Z,16.97
2022-10-20T15:13:34.480Z,16.95
2022-10-20T15:16:02.876Z,17.05
2022-10-20T15:18:30.515Z,16.89
2022-10-20T15:20:57.848Z,16.90
2022-10-20T15:23:27.518Z,16.81
2022-10-20T15:25:57.600Z,16.85
2022-10-20T15:28:30.312Z,16.95
2022-10-20T15:30:59.208Z,16.84
2022-10-20T15:33:26.859Z,16.80
2022-10-20T15:35:54.704Z,16.93
2022-10-20T15:38:22.039Z,17.00
2022-10-20T15:40:49.650Z,16.95
2022-10-20T15:43:18.566Z,16.96
2022-10-20T15:46:03.884Z,16.87
2022-10-20T15:48:31.508Z,16.66
2022-10-20T15:51:01.443Z,16.64
2022-10-20T15:53:28.738Z,16.55
2022-10-20T15:55:56.382Z,16.39
2022-10-20T15:58:23.708Z,16.29
2022-10-20T16:00:51.091Z,16.17
2022-10-20T16:03:19.048Z,16.00
2022-10-20T16:05:46.821Z,15.94
2022-10-20T16:10:43.600Z,15.71
2022-10-20T16:13:11.485Z,15.51
2022-10-20T16:15:38.859Z,15.44
2022-10-20T16:18:09.601Z,15.30
2022-10-20T16:20:37.458Z,15.22
2022-10-20T16:23:04.821Z,14.98
2022-10-20T16:25:32.366Z,14.91
2022-10-20T16:27:59.896Z,14.81
2022-10-20T16:30:27.203Z,14.66
2022-10-20T16:33:21.023Z,14.60
2022-10-20T16:35:50.549Z,14.53
2022-10-20T16:38:18.102Z,14.35
2022-10-20T16:40:56.679Z,14.32
2022-10-20T16:43:24.266Z,14.22
2022-10-20T16:45:51.629Z,14.16
2022-10-20T16:48:19.020Z,14.01
2022-10-20T16:50:46.657Z,13.94
2022-10-20T16:53:13.981Z,13.83
2022-10-20T16:55:51.148Z,13.76
2022-10-20T16:58:18.800Z,13.67
2022-10-20T17:00:46.308Z,13.63
2022-10-20T17:03:16.955Z,13.60
2022-10-20T17:05:54.064Z,13.45
2022-10-20T17:08:21.379Z,13.42
2022-10-20T17:10:48.978Z,13.35
2022-10-20T17:13:16.272Z,13.34
2022-10-20T17:15:43.611Z,13.34
2022-10-20T17:18:11.180Z,13.20
2022-10-20T17:20:38.741Z,13.15
2022-10-20T17:23:06.065Z,13.06
2022-10-20T17:25:33.638Z,13.10
2022-10-20T17:28:01.403Z,12.99
2022-10-20T17:30:48.519Z,12.87
2022-10-20T17:33:16.119Z,12.89
2022-10-20T17:35:47.471Z,12.73
2022-10-20T17:38:14.880Z,12.76
2022-10-20T17:40:42.455Z,12.61
2022-10-20T17:43:09.825Z,12.58
2022-10-20T17:45:38.308Z,12.59
2022-10-20T17:48:06.231Z,12.45
2022-10-20T17:50:33.636Z,12.42
2022-10-20T17:53:03.765Z,12.48
2022-10-20T17:55:33.268Z,12.32
2022-10-20T17:58:05.563Z,12.38
2022-10-20T18:00:54.934Z,12.31
2022-10-20T18:03:21.085Z,12.38
2022-10-20T18:05:48.387Z,12.39
2022-10-20T18:08:15.737Z,12.42
2022-10-20T18:10:43.957Z,12.31
2022-10-20T18:13:11.632Z,12.09
2022-10-20T18:15:43.020Z,12.16
2022-10-20T18:18:10.615Z,12.02
2022-10-20T18:20:37.936Z,12.05
2022-10-20T18:23:05.264Z,12.02
2022-10-20T18:25:35.331Z,11.94
2022-10-20T18:28:02.939Z,11.82
2022-10-20T18:30:30.352Z,11.67
2022-10-20T18:32:57.915Z,11.74
2022-10-20T18:35:25.272Z,11.70
2022-10-20T18:37:57.399Z,11.54
2022-10-20T18:40:24.849Z,11.63
2022-10-20T18:42:52.102Z,11.58
2022-10-20T18:45:21.397Z,11.54
2022-10-20T18:47:51.383Z,11.55
2022-10-20T18:50:18.716Z,11.44
2022-10-20T18:52:46.181Z,11.38
2022-10-20T18:55:13.769Z,11.45
2022-10-20T18:57:41.336Z,11.38
2022-10-20T19:00:09.453Z,11.22
2022-10-20T19:02:37.241Z,11.26
2022-10-20T19:05:05.254Z,11.28
2022-10-20T19:07:33.425Z,11.28
2022-10-20T19:10:01.042Z,11.21
2022-10-20T19:12:28.408Z,11.21
2022-10-20T19:14:55.744Z,11.18
2022-10-20T19:17:23.367Z,11.02
2022-10-20T19:19:51.051Z,10.98
2022-10-20T19:22:18.451Z,11.03
2022-10-20T19:24:46.217Z,11.00
2022-10-20T19:27:28.798Z,11.08
2022-10-20T19:29:56.463Z,11.04
2022-10-20T19:32:23.772Z,11.05
2022-10-20T19:34:51.176Z,10.95
2022-10-20T19:37:18.737Z,10.83
2022-10-20T19:39:46.287Z,10.88
2022-10-20T19:42:13.792Z,10.80
2022-10-20T19:44:42.559Z,10.71
2022-10-20T19:47:09.859Z,10.68
2022-10-20T19:49:37.749Z,10.63
2022-10-20T19:52:06.330Z,10.59
2022-10-20T19:54:33.966Z,10.60
2022-10-20T19:57:01.528Z,10.57
2022-10-20T19:59:29.117Z,10.49
2022-10-20T20:01:56.505Z,10.49
2022-10-20T20:04:24.165Z,10.40
2022-10-20T20:06:51.590Z,10.36
2022-10-20T20:09:18.908Z,10.33
2022-10-20T20:11:46.563Z,10.36
2022-10-20T20:14:16.353Z,10.34
2022-10-20T20:16:45.891Z,10.38
2022-10-20T20:19:14.933Z,10.31
2022-10-20T20:21:42.401Z,10.25
2022-10-20T20:24:11.248Z,10.18
2022-10-20T20:26:38.921Z,10.10
2022-10-20T20:29:06.240Z,10.14
2022-10-20T20:31:34.114Z,10.08
2022-10-20T20:34:01.759Z,10.04
2022-10-20T20:36:29.275Z,10.05
2022-10-20T20:38:58.278Z,9.89
2022-10-20T20:41:27.904Z,10.07
2022-10-20T20:43:55.393Z,9.95
2022-10-20T20:46:24.126Z,10.01
2022-10-20T20:48:51.681Z,9.88
2022-10-20T20:51:19.182Z,9.83
2022-10-20T20:53:46.584Z,9.86
2022-10-20T20:56:16.829Z,9.94
2022-10-20T20:58:51.942Z,9.87
2022-10-20T21:01:24.575Z,9.69
2022-10-20T21:03:53.348Z,9.60
2022-10-20T21:06:25.644Z,9.77
2022-10-20T21:09:01.267Z,9.76
2022-10-20T21:11:28.687Z,9.67
2022-10-20T21:13:57.448Z,9.71
2022-10-20T21:16:27.695Z,9.58
2022-10-20T21:18:57.464Z,9.54
2022-10-20T21:21:29.991Z,9.44
2022-10-20T21:23:58.489Z,9.48
2022-10-20T21:26:26.975Z,9.52
2022-10-20T21:28:54.803Z,9.44
2022-10-20T21:31:24.958Z,9.46
2022-10-20T21:33:54.479Z,9.54
2022-10-20T21:36:22.471Z,9.46
2022-10-20T21:38:49.820Z,9.38
2022-10-20T21:41:22.436Z,9.37
2022-10-20T21:43:53.012Z,9.35
2022-10-20T21:46:23.668Z,9.34
2022-10-20T21:48:52.819Z,9.30
2022-10-20T21:51:25.887Z,9.30
2022-10-20T21:54:02.044Z,9.22
2022-10-20T21:56:30.225Z,9.27
2022-10-20T21:58:57.807Z,9.19
2022-10-20T22:01:25.652Z,9.20
2022-10-20T22:03:53.920Z,9.14
2022-10-20T22:06:23.578Z,9.04
2022-10-20T22:08:55.889Z,9.07
2022-10-20T22:11:28.852Z,9.20
2022-10-20T22:13:56.357Z,9.17
2022-10-20T22:16:26.272Z,9.20
2022-10-20T22:18:59.968Z,9.15
2022-10-20T22:21:28.507Z,9.13
2022-10-20T22:23:57.242Z,9.14
2022-10-20T22:26:29.131Z,9.21
2022-10-20T22:28:57.516Z,9.11
2022-10-20T22:31:25.395Z,9.19
2022-10-20T22:33:54.121Z,9.19
2022-10-20T22:36:22.160Z,9.09
2022-10-20T22:38:49.539Z,9.14
2022-10-20T22:41:17.050Z,9.21
2022-10-20T22:43:44.598Z,9.11
2022-10-20T22:46:11.963Z,9.17
2022-10-20T22:48:39.319Z,9.23
2022-10-20T22:51:08.286Z,9.14
2022-10-20T22:53:36.817Z,9.15
2022-10-20T22:56:08.253Z,9.17
2022-10-20T22:58:36.453Z,9.20
2022-10-20T23:01:12.695Z,9.21
2022-10-20T23:03:40.492Z,9.16
2022-10-20T23:06:12.999Z,9.20
2022-10-20T23:08:47.327Z,9.28
2022-10-20T23:11:14.772Z,9.18
2022-10-20T23:13:42.823Z,9.10
2022-10-20T23:16:10.344Z,9.24
2022-10-20T23:18:38.290Z,9.16
2022-10-20T23:21:06.385Z,9.20
2022-10-20T23:23:37.413Z,9.17
2022-10-20T23:26:05.968Z,9.29
2022-10-20T23:28:34.608Z,9.19
2022-10-20T23:31:10.012Z,9.27
2022-10-20T23:33:38.662Z,9.27
2022-10-20T23:36:06.337Z,9.18
2022-10-20T23:38:33.871Z,9.23
2022-10-20T23:41:01.473Z,9.24
2022-10-20T23:43:28.804Z,9.20
2022-10-20T23:45:56.135Z,9.23
2022-10-20T23:48:23.767Z,9.29
2022-10-20T23:50:51.050Z,9.30
2022-10-20T23:53:18.319Z,9.30
2022-10-20T23:55:46.788Z,9.25
2022-10-20T23:58:14.078Z,9.19
